Time;durP1;ratioP1;P1;durP2;ratioP2;P2;SDS_P1;SDS_P2;PMS_P1;PMS_P2;Temp;Humidity;BMP_temperature;BMP_pressure;BME280_temperature;BME280_humidity;BME280_pressure;Samples;Min_cycle;Max_cycle;Signal;HPM_P1;HPM_P2
2023/12/04 01:17:25;;;;;;;7.80;3.07;;;;;;;;;;4964848;28;20042;-94
2023/12/04 01:20:33;;;;;;;5.83;2.10;;;;;;;;;;4923738;28;20065;-95
2023/12/04 01:22:57;;;;;;;8.13;2.73;;;;;;;;;;4861903;29;20183;-95
2023/12/04 01:25:27;;;;;;;6.87;2.60;;;;;;;;;;4951828;28;20447;-95
2023/12/04 01:28:14;;;;;;;;;;;;;;;;;;;;;
2023/12/04 01:30:52;;;;;;;;;;;;;;;;;;;;;
2023/12/04 01:33:33;;;;;;;9.63;3.20;;;;;;;;;;4960118;28;20041;-95
2023/12/04 01:35:58;;;;;;;9.07;3.50;;;;;;;;;;4954544;28;20019;-94
2023/12/04 01:38:31;;;;;;;7.77;3.37;;;;;;;;;;4952534;28;20115;-95
2023/12/04 01:40:59;;;;;;;8.67;2.83;;;;;;;;;;4948103;28;20023;-95
2023/12/04 01:43:29;;;;;;;12.07;4.00;;;;;;;;;;4954117;28;20034;-96
2023/12/04 01:49:10;;;;;;;;;;;;;;;;;;;;;
2023/12/04 01:51:56;;;;;;;7.95;2.92;;;;;;;;;;4971353;28;20027;-94
2023/12/04 02:00:50;;;;;;;9.00;3.43;;;;;;;;;;4958123;28;20031;-95
2023/12/04 02:06:25;;;;;;;7.27;3.27;;;;;;;;;;4964119;28;20079;-95
2023/12/04 02:08:53;;;;;;;6.83;2.93;;;;;;;;;;4953880;28;20033;-95
2023/12/04 02:11:23;;;;;;;8.97;3.50;;;;;;;;;;4952596;28;20042;-94
2023/12/04 02:13:51;;;;;;;6.73;2.93;;;;;;;;;;4768428;28;5437970;-95
2023/12/04 02:16:22;;;;;;;8.87;3.40;;;;;;;;;;4955028;28;20027;-94
2023/12/04 02:19:02;;;;;;;9.50;3.60;;;;;;;;;;4951855;28;20054;-95
2023/12/04 02:21:37;;;;;;;6.37;2.10;;;;;;;;;;4954408;28;20027;-96
2023/12/04 02:24:15;;;;;;;;;;;;;;;;;;;;;
2023/12/04 02:26:47;;;;;;;4.43;1.60;;;;;;;;;;4972132;28;20015;-95
2023/12/04 02:29:21;;;;;;;7.53;2.33;;;;;;;;;;4953568;28;20118;-95
2023/12/04 02:31:50;;;;;;;4.80;2.13;;;;;;;;;;4954275;28;20034;-95
2023/12/04 02:34:18;;;;;;;7.07;2.70;;;;;;;;;;4953723;28;20443;-95
2023/12/04 02:39:43;;;;;;;9.10;3.33;;;;;;;;;;4969360;28;20126;-95
2023/12/04 02:42:17;;;;;;;6.27;2.90;;;;;;;;;;4954194;28;20046;-94
2023/12/04 02:44:55;;;;;;;;;;;;;;;;;;;;;
2023/12/04 02:47:41;;;;;;;5.43;2.30;;;;;;;;;;4971331;28;20340;-95
2023/12/04 02:50:09;;;;;;;5.75;2.55;;;;;;;;;;4930857;28;20039;-95
2023/12/04 02:52:46;;;;;;;7.37;3.40;;;;;;;;;;4953544;28;20129;-96
2023/12/04 02:58:15;;;;;;;5.00;1.93;;;;;;;;;;4930138;29;20177;-96
2023/12/04 03:01:01;;;;;;;;;;;;;;;;;;;;;
2023/12/04 03:03:49;;;;;;;7.83;2.87;;;;;;;;;;4931330;29;20050;-96
2023/12/04 03:06:23;;;;;;;7.87;2.97;;;;;;;;;;4904960;29;20028;-95
2023/12/04 03:09:19;;;;;;;;;;;;;;;;;;;;;
2023/12/04 03:15:06;;;;;;;;;;;;;;;;;;;;;
2023/12/04 03:17:46;;;;;;;10.50;3.83;;;;;;;;;;4975079;28;20031;-95
2023/12/04 03:20:21;;;;;;;;;;;;;;;;;;;;;
2023/12/04 03:22:59;;;;;;;;;;;;;;;;;;;;;
2023/12/04 03:28:43;;;;;;;;;;;;;;;;;;;;;
2023/12/04 03:31:19;;;;;;;8.53;3.20;;;;;;;;;;4974130;28;20030;-96
2023/12/04 03:36:59;;;;;;;7.67;2.77;;;;;;;;;;4929228;28;20039;-96
2023/12/04 03:39:29;;;;;;;8.30;3.00;;;;;;;;;;4956991;28;20085;-96
2023/12/04 03:45:16;;;;;;;;;;;;;;;;;;;;;
2023/12/04 03:48:33;;;;;;;;;;;;;;;;;;;;;
2023/12/04 03:54:47;;;;;;;;;;;;;;;;;;;;;
2023/12/04 04:00:40;;;;;;;;;;;;;;;;;;;;;
2023/12/04 04:06:29;;;;;;;6.55;1.90;;;;;;;;;;4909164;29;20501;-94
2023/12/04 04:18:35;;;;;;;;;;;;;;;;;;;;;
2023/12/04 04:21:11;;;;;;;;;;;;;;;;;;;;;
2023/12/04 04:23:56;;;;;;;7.23;3.23;;;;;;;;;;4912355;29;20528;-95
2023/12/04 04:30:21;;;;;;;;;;;;;;;;;;;;;
2023/12/04 04:42:14;;;;;;;;;;;;;;;;;;;;;
2023/12/04 04:45:08;;;;;;;;;;;;;;;;;;;;;
2023/12/04 04:57:28;;;;;;;9.57;3.70;;;;;;;;;;4847864;29;20030;-95
2023/12/04 05:00:06;;;;;;;;;;;;;;;;;;;;;
2023/12/04 05:02:54;;;;;;;;;;;;;;;;;;;;;
2023/12/04 05:05:51;;;;;;;8.40;2.87;;;;;;;;;;4933065;29;20044;-96
2023/12/04 05:11:24;;;;;;;8.30;3.08;;;;;;;;;;4909543;29;20112;-95
2023/12/04 05:14:05;;;;;;;;;;;;;;;;;;;;;
2023/12/04 05:22:32;;;;;;;6.73;2.93;;;;;;;;;;4908844;29;20040;-96
2023/12/04 05:25:39;;;;;;;;;;;;;;;;;;;;;
2023/12/04 05:28:26;;;;;;;6.38;3.08;;;;;;;;;;4958608;28;20031;-95
2023/12/04 05:37:44;;;;;;;6.40;2.67;;;;;;;;;;4895610;29;20075;-94
2023/12/04 05:44:09;;;;;;;;;;;;;;;;;;;;;
2023/12/04 05:47:02;;;;;;;5.95;2.80;;;;;;;;;;4907596;29;20071;-95
2023/12/04 05:50:07;;;;;;;;;;;;;;;;;;;;;
2023/12/04 05:59:08;;;;;;;7.50;2.80;;;;;;;;;;4969939;28;20371;-95
2023/12/04 06:02:15;;;;;;;7.97;2.83;;;;;;;;;;4947064;29;20043;-95
2023/12/04 06:05:09;;;;;;;;;;;;;;;;;;;;;
2023/12/04 06:07:57;;;;;;;5.63;2.03;;;;;;;;;;4969972;28;20037;-95
2023/12/04 06:10:42;;;;;;;;;;;;;;;;;;;;;
2023/12/04 06:13:24;;;;;;;4.97;2.57;;;;;;;;;;4959586;28;20114;-94
2023/12/04 06:15:52;;;;;;;;;;;;;;;;;;4955509;28;20122;-95
2023/12/04 06:21:43;;;;;;;;;;;;;;;;;;;;;
2023/12/04 06:24:32;;;;;;;5.47;2.40;;;;;;;;;;4971615;28;20043;-95
2023/12/04 06:27:20;;;;;;;;;;;;;;;;;;;;;
2023/12/04 06:36:28;;;;;;;;;;;;;;;;;;;;;
2023/12/04 06:39:01;;;;;;;5.40;2.53;;;;;;;;;;4972031;28;20031;-96
2023/12/04 06:41:53;;;;;;;;;;;;;;;;;;;;;
2023/12/04 06:48:23;;;;;;;10.77;2.53;;;;;;;;;;4915000;29;20474;-96
2023/12/04 06:50:47;;;;;;;7.23;2.27;;;;;;;;;;4929627;29;20063;-96
2023/12/04 06:56:19;;;;;;;7.60;3.17;;;;;;;;;;4912775;29;20090;-95
2023/12/04 07:01:53;;;;;;;5.70;2.42;;;;;;;;;;4926034;29;20060;-95
2023/12/04 07:23:50;;;;;;;;;;;;;;;;;;;;;
2023/12/04 07:26:49;;;;;;;;;;;;;;;;;;;;;
2023/12/04 08:18:44;;;;;;;;;;;;;;;;;;;;;
2023/12/04 08:24:09;;;;;;;4.90;1.88;;;;;;;;;;4948469;28;20086;-96
2023/12/04 08:27:27;;;;;;;5.10;2.45;;;;;;;;;;4933304;28;20055;-95
2023/12/04 08:33:28;;;;;;;6.72;2.75;;;;;;;;;;4906244;28;20031;-96
2023/12/04 08:41:48;;;;;;;4.13;2.05;;;;;;;;;;5003921;23;20161;-95
2023/12/04 08:44:16;;;;;;;7.70;1.95;;;;;;;;;;4953367;28;20082;-95
2023/12/04 08:46:42;;;;;;;3.35;1.40;;;;;;;;;;4954741;28;20037;-95
2023/12/04 08:49:07;;;;;;;5.90;2.70;;;;;;;;;;4956074;28;20103;-96
2023/12/04 08:51:38;;;;;;;5.13;2.40;;;;;;;;;;4956046;28;20053;-96
2023/12/04 08:55:04;;;;;;;6.00;2.78;;;;;;;;;;4959157;28;20031;-94
2023/12/04 09:19:34;;;;;;;6.05;2.30;;;;;;;;;;5143762;23;20086;-95
2023/12/04 09:22:37;;;;;;;;;;;;;;;;;;;;;
2023/12/04 09:25:22;;;;;;;6.97;2.72;;;;;;;;;;4955444;28;20059;-94
2023/12/04 09:28:19;;;;;;;3.85;1.65;;;;;;;;;;4940807;29;20489;-95
2023/12/04 09:30:58;;;;;;;6.22;2.35;;;;;;;;;;4939590;28;20411;-95
2023/12/04 09:33:26;;;;;;;8.43;2.67;;;;;;;;;;4930096;29;20039;-96
2023/12/04 09:36:01;;;;;;;7.32;2.78;;;;;;;;;;4944206;29;20027;-95
2023/12/04 09:38:29;;;;;;;4.45;1.95;;;;;;;;;;4942122;28;20034;-95
2023/12/04 20:53:18;;;;;;;20.57;9.40;;;;;;;;;;4991983;28;20046;-90
2023/12/04 20:55:46;;;;;;;17.70;8.70;;;;;;;;;;4990382;28;20118;-89
2023/12/04 20:58:11;;;;;;;20.50;9.70;;;;;;;;;;4986117;28;20019;-88
2023/12/04 21:00:37;;;;;;;23.90;10.17;;;;;;;;;;4989487;28;20031;-89
2023/12/04 21:03:02;;;;;;;21.20;10.02;;;;;;;;;;4993414;28;20019;-90
2023/12/04 21:05:28;;;;;;;22.58;10.00;;;;;;;;;;4979510;28;20470;-89
2023/12/04 21:07:53;;;;;;;23.47;10.30;;;;;;;;;;4974311;28;20022;-89
2023/12/04 21:10:19;;;;;;;17.30;9.15;;;;;;;;;;4997672;28;20163;-89
2023/12/04 21:12:44;;;;;;;23.27;10.63;;;;;;;;;;4986952;28;20054;-89
2023/12/04 21:15:09;;;;;;;23.95;9.60;;;;;;;;;;4991487;28;20033;-89
2023/12/04 21:17:35;;;;;;;19.23;9.52;;;;;;;;;;4986151;28;20481;-89
2023/12/04 21:20:00;;;;;;;19.10;9.50;;;;;;;;;;4988372;28;20032;-89
2023/12/04 21:22:25;;;;;;;20.83;9.05;;;;;;;;;;4990779;28;20126;-90
2023/12/04 21:24:50;;;;;;;19.67;8.35;;;;;;;;;;4987306;28;20472;-90
2023/12/04 21:27:17;;;;;;;19.17;8.27;;;;;;;;;;4990044;28;20050;-89
2023/12/04 21:29:42;;;;;;;22.55;10.13;;;;;;;;;;4991905;28;20057;-89
2023/12/04 21:32:07;;;;;;;18.70;8.55;;;;;;;;;;4984516;28;20054;-89
2023/12/04 21:34:33;;;;;;;16.95;8.88;;;;;;;;;;4979068;28;20101;-89
2023/12/04 21:36:58;;;;;;;16.70;8.23;;;;;;;;;;4978581;28;20026;-89
2023/12/04 21:39:24;;;;;;;16.08;7.53;;;;;;;;;;4985015;28;20038;-90
2023/12/04 21:41:49;;;;;;;20.13;7.55;;;;;;;;;;4978770;28;20026;-90
2023/12/04 21:44:14;;;;;;;18.05;7.55;;;;;;;;;;4987417;28;20027;-90
2023/12/04 21:46:40;;;;;;;19.60;8.02;;;;;;;;;;4984727;28;20053;-90
2023/12/04 21:49:05;;;;;;;26.00;10.07;;;;;;;;;;4993940;28;20026;-89
2023/12/04 21:51:30;;;;;;;19.23;9.32;;;;;;;;;;4992010;28;20029;-89
2023/12/04 21:53:55;;;;;;;24.88;10.63;;;;;;;;;;4993442;28;20034;-89
2023/12/04 21:56:21;;;;;;;20.08;9.80;;;;;;;;;;4988682;28;20019;-87
2023/12/04 21:58:46;;;;;;;14.90;8.00;;;;;;;;;;4993251;28;20060;-87
2023/12/04 22:01:13;;;;;;;17.27;9.23;;;;;;;;;;5001184;28;20379;-86
2023/12/04 22:03:38;;;;;;;23.70;8.80;;;;;;;;;;4993826;28;20073;-86
2023/12/04 22:06:04;;;;;;;16.92;7.20;;;;;;;;;;4993552;28;20351;-87
2023/12/04 22:08:29;;;;;;;16.08;8.18;;;;;;;;;;4983633;28;20027;-86
2023/12/04 22:10:55;;;;;;;18.58;8.68;;;;;;;;;;4986953;28;20102;-86
2023/12/04 22:13:20;;;;;;;17.70;8.90;;;;;;;;;;4974792;28;20019;-86
2023/12/04 22:15:45;;;;;;;16.90;7.75;;;;;;;;;;4989175;28;20025;-86
2023/12/04 22:18:11;;;;;;;17.65;8.13;;;;;;;;;;4984883;28;20138;-86
2023/12/04 22:20:36;;;;;;;15.60;8.05;;;;;;;;;;4982961;28;20448;-86
